sensor_id;sensor_type;location;lat;lon;timestamp;P1;durP1;ratioP1;P2;durP2;ratioP2
69280;SDS011;56392;51.082;17.080;2023-05-14T00:05:41;14.27;;;8.10;;
69280;SDS011;56392;51.082;17.080;2023-05-14T00:11:05;15.73;;;7.70;;
69280;SDS011;56392;51.082;17.080;2023-05-14T00:16:29;16.02;;;7.53;;
69280;SDS011;56392;51.082;17.080;2023-05-14T00:21:53;12.30;;;6.37;;
69280;SDS011;56392;51.082;17.080;2023-05-14T00:27:16;11.87;;;6.50;;
69280;SDS011;56392;51.082;17.080;2023-05-14T00:32:39;15.30;;;6.22;;
69280;SDS011;56392;51.082;17.080;2023-05-14T00:38:03;12.73;;;6.60;;
69280;SDS011;56392;51.082;17.080;2023-05-14T00:43:26;13.13;;;6.20;;
69280;SDS011;56392;51.082;17.080;2023-05-14T00:48:49;14.80;;;6.65;;
69280;SDS011;56392;51.082;17.080;2023-05-14T00:54:14;13.32;;;6.35;;
69280;SDS011;56392;51.082;17.080;2023-05-14T00:59:38;13.03;;;6.80;;
69280;SDS011;56392;51.082;17.080;2023-05-14T01:05:03;13.23;;;6.82;;
69280;SDS011;56392;51.082;17.080;2023-05-14T01:10:29;13.45;;;6.55;;
69280;SDS011;56392;51.082;17.080;2023-05-14T01:15:58;12.40;;;6.70;;
69280;SDS011;56392;51.082;17.080;2023-05-14T01:21:35;15.00;;;7.10;;
69280;SDS011;56392;51.082;17.080;2023-05-14T01:27:00;13.75;;;7.25;;
69280;SDS011;56392;51.082;17.080;2023-05-14T01:32:28;12.95;;;6.72;;
69280;SDS011;56392;51.082;17.080;2023-05-14T01:37:55;14.40;;;7.13;;
69280;SDS011;56392;51.082;17.080;2023-05-14T01:43:20;14.35;;;7.45;;
69280;SDS011;56392;51.082;17.080;2023-05-14T01:48:45;13.43;;;6.88;;
69280;SDS011;56392;51.082;17.080;2023-05-14T01:54:09;15.97;;;7.00;;
69280;SDS011;56392;51.082;17.080;2023-05-14T01:59:32;13.00;;;7.00;;
69280;SDS011;56392;51.082;17.080;2023-05-14T02:04:55;12.40;;;6.75;;
69280;SDS011;56392;51.082;17.080;2023-05-14T02:10:19;13.93;;;6.50;;
69280;SDS011;56392;51.082;17.080;2023-05-14T02:15:42;13.03;;;7.10;;
69280;SDS011;56392;51.082;17.080;2023-05-14T02:21:05;12.80;;;7.03;;
69280;SDS011;56392;51.082;17.080;2023-05-14T02:26:30;14.65;;;6.32;;
69280;SDS011;56392;51.082;17.080;2023-05-14T02:31:53;12.70;;;6.53;;
69280;SDS011;56392;51.082;17.080;2023-05-14T02:37:17;12.45;;;6.35;;
69280;SDS011;56392;51.082;17.080;2023-05-14T02:42:41;11.02;;;6.05;;
69280;SDS011;56392;51.082;17.080;2023-05-14T02:48:05;13.00;;;6.77;;
69280;SDS011;56392;51.082;17.080;2023-05-14T02:53:28;12.70;;;6.65;;
69280;SDS011;56392;51.082;17.080;2023-05-14T02:58:53;13.10;;;6.43;;
69280;SDS011;56392;51.082;17.080;2023-05-14T03:04:16;11.77;;;6.53;;
69280;SDS011;56392;51.082;17.080;2023-05-14T03:09:39;12.83;;;6.80;;
69280;SDS011;56392;51.082;17.080;2023-05-14T03:15:03;12.15;;;6.47;;
69280;SDS011;56392;51.082;17.080;2023-05-14T03:20:27;14.18;;;6.80;;
69280;SDS011;56392;51.082;17.080;2023-05-14T03:25:50;13.37;;;6.43;;
69280;SDS011;56392;51.082;17.080;2023-05-14T03:31:14;12.23;;;6.22;;
69280;SDS011;56392;51.082;17.080;2023-05-14T03:36:37;11.98;;;6.20;;
69280;SDS011;56392;51.082;17.080;2023-05-14T03:42:00;14.00;;;6.30;;
69280;SDS011;56392;51.082;17.080;2023-05-14T03:47:25;13.02;;;6.38;;
69280;SDS011;56392;51.082;17.080;2023-05-14T03:52:48;12.45;;;6.25;;
69280;SDS011;56392;51.082;17.080;2023-05-14T03:58:11;13.23;;;6.40;;
69280;SDS011;56392;51.082;17.080;2023-05-14T04:03:36;13.70;;;6.50;;
69280;SDS011;56392;51.082;17.080;2023-05-14T04:08:59;14.07;;;6.65;;
69280;SDS011;56392;51.082;17.080;2023-05-14T04:14:22;13.60;;;6.57;;
69280;SDS011;56392;51.082;17.080;2023-05-14T04:19:47;13.20;;;6.60;;
69280;SDS011;56392;51.082;17.080;2023-05-14T04:25:10;13.05;;;6.35;;
69280;SDS011;56392;51.082;17.080;2023-05-14T04:30:33;17.02;;;7.40;;
69280;SDS011;56392;51.082;17.080;2023-05-14T04:35:57;12.10;;;6.20;;
69280;SDS011;56392;51.082;17.080;2023-05-14T04:41:21;13.98;;;6.18;;
69280;SDS011;56392;51.082;17.080;2023-05-14T04:46:44;13.30;;;6.30;;
69280;SDS011;56392;51.082;17.080;2023-05-14T04:52:08;12.53;;;6.47;;
69280;SDS011;56392;51.082;17.080;2023-05-14T04:57:31;12.73;;;6.40;;
69280;SDS011;56392;51.082;17.080;2023-05-14T05:02:54;13.57;;;6.60;;
69280;SDS011;56392;51.082;17.080;2023-05-14T05:08:19;11.88;;;6.53;;
69280;SDS011;56392;51.082;17.080;2023-05-14T05:13:42;13.53;;;6.33;;
69280;SDS011;56392;51.082;17.080;2023-05-14T05:19:05;15.45;;;6.35;;
69280;SDS011;56392;51.082;17.080;2023-05-14T05:24:29;13.60;;;6.82;;
69280;SDS011;56392;51.082;17.080;2023-05-14T05:29:52;13.57;;;6.63;;
69280;SDS011;56392;51.082;17.080;2023-05-14T05:35:15;13.75;;;6.95;;
69280;SDS011;56392;51.082;17.080;2023-05-14T05:40:40;12.77;;;6.65;;
69280;SDS011;56392;51.082;17.080;2023-05-14T05:46:03;13.20;;;6.60;;
69280;SDS011;56392;51.082;17.080;2023-05-14T05:51:26;15.10;;;7.27;;
69280;SDS011;56392;51.082;17.080;2023-05-14T05:56:50;14.15;;;7.07;;
69280;SDS011;56392;51.082;17.080;2023-05-14T06:02:13;14.70;;;6.60;;
69280;SDS011;56392;51.082;17.080;2023-05-14T06:07:36;16.63;;;6.87;;
69280;SDS011;56392;51.082;17.080;2023-05-14T06:13:01;13.73;;;6.65;;
69280;SDS011;56392;51.082;17.080;2023-05-14T06:18:24;12.95;;;6.85;;
69280;SDS011;56392;51.082;17.080;2023-05-14T06:23:47;12.50;;;6.53;;
69280;SDS011;56392;51.082;17.080;2023-05-14T06:29:12;13.65;;;7.10;;
69280;SDS011;56392;51.082;17.080;2023-05-14T06:34:35;13.70;;;6.32;;
69280;SDS011;56392;51.082;17.080;2023-05-14T06:39:59;12.13;;;6.47;;
69280;SDS011;56392;51.082;17.080;2023-05-14T06:45:23;11.90;;;6.27;;
69280;SDS011;56392;51.082;17.080;2023-05-14T06:50:47;12.07;;;6.00;;
69280;SDS011;56392;51.082;17.080;2023-05-14T06:56:11;12.77;;;6.13;;
69280;SDS011;56392;51.082;17.080;2023-05-14T07:01:36;11.93;;;5.43;;
69280;SDS011;56392;51.082;17.080;2023-05-14T07:06:59;10.48;;;5.00;;
69280;SDS011;56392;51.082;17.080;2023-05-14T07:12:26;9.10;;;4.15;;
69280;SDS011;56392;51.082;17.080;2023-05-14T07:17:50;10.03;;;4.00;;
69280;SDS011;56392;51.082;17.080;2023-05-14T07:23:13;9.43;;;4.15;;
69280;SDS011;56392;51.082;17.080;2023-05-14T07:28:36;8.25;;;3.20;;
69280;SDS011;56392;51.082;17.080;2023-05-14T07:34:00;7.37;;;2.93;;
69280;SDS011;56392;51.082;17.080;2023-05-14T07:39:23;7.37;;;3.00;;
69280;SDS011;56392;51.082;17.080;2023-05-14T07:44:46;8.50;;;3.10;;
69280;SDS011;56392;51.082;17.080;2023-05-14T07:50:12;7.43;;;2.90;;
69280;SDS011;56392;51.082;17.080;2023-05-14T07:55:35;7.67;;;2.10;;
69280;SDS011;56392;51.082;17.080;2023-05-14T08:00:58;5.88;;;2.00;;
69280;SDS011;56392;51.082;17.080;2023-05-14T08:06:23;4.80;;;1.70;;
69280;SDS011;56392;51.082;17.080;2023-05-14T08:11:47;5.67;;;1.63;;
69280;SDS011;56392;51.082;17.080;2023-05-14T08:17:11;5.43;;;1.80;;
69280;SDS011;56392;51.082;17.080;2023-05-14T08:22:35;4.68;;;1.60;;
69280;SDS011;56392;51.082;17.080;2023-05-14T08:27:58;5.47;;;1.90;;
69280;SDS011;56392;51.082;17.080;2023-05-14T08:33:22;4.60;;;1.70;;
69280;SDS011;56392;51.082;17.080;2023-05-14T08:38:46;6.03;;;1.80;;
69280;SDS011;56392;51.082;17.080;2023-05-14T08:44:11;4.97;;;1.50;;
69280;SDS011;56392;51.082;17.080;2023-05-14T08:49:36;5.30;;;1.80;;
69280;SDS011;56392;51.082;17.080;2023-05-14T08:55:04;5.45;;;1.67;;
69280;SDS011;56392;51.082;17.080;2023-05-14T09:00:28;4.50;;;1.73;;
69280;SDS011;56392;51.082;17.080;2023-05-14T09:05:51;6.13;;;1.90;;
69280;SDS011;56392;51.082;17.080;2023-05-14T09:11:16;6.47;;;2.00;;
69280;SDS011;56392;51.082;17.080;2023-05-14T09:16:39;5.82;;;2.20;;
69280;SDS011;56392;51.082;17.080;2023-05-14T09:22:07;6.20;;;2.03;;
69280;SDS011;56392;51.082;17.080;2023-05-14T09:27:33;8.70;;;1.60;;
69280;SDS011;56392;51.082;17.080;2023-05-14T09:32:57;5.90;;;2.33;;
69280;SDS011;56392;51.082;17.080;2023-05-14T09:38:21;5.18;;;1.95;;
69280;SDS011;56392;51.082;17.080;2023-05-14T09:43:46;6.73;;;2.10;;
69280;SDS011;56392;51.082;17.080;2023-05-14T09:49:10;5.63;;;1.80;;
69280;SDS011;56392;51.082;17.080;2023-05-14T09:54:33;4.97;;;1.55;;
69280;SDS011;56392;51.082;17.080;2023-05-14T09:59:57;5.97;;;2.00;;
69280;SDS011;56392;51.082;17.080;2023-05-14T10:05:20;5.65;;;1.60;;
69280;SDS011;56392;51.082;17.080;2023-05-14T10:10:45;5.88;;;1.90;;
69280;SDS011;56392;51.082;17.080;2023-05-14T10:16:12;7.47;;;1.97;;
69280;SDS011;56392;51.082;17.080;2023-05-14T10:21:40;5.27;;;1.60;;
69280;SDS011;56392;51.082;17.080;2023-05-14T10:27:06;6.05;;;1.80;;
69280;SDS011;56392;51.082;17.080;2023-05-14T10:32:32;5.40;;;1.90;;
69280;SDS011;56392;51.082;17.080;2023-05-14T10:37:58;5.77;;;1.67;;
69280;SDS011;56392;51.082;17.080;2023-05-14T10:43:21;5.38;;;1.92;;
69280;SDS011;56392;51.082;17.080;2023-05-14T10:48:49;5.80;;;1.92;;
69280;SDS011;56392;51.082;17.080;2023-05-14T10:54:14;5.37;;;1.97;;
69280;SDS011;56392;51.082;17.080;2023-05-14T10:59:40;5.50;;;1.90;;
69280;SDS011;56392;51.082;17.080;2023-05-14T11:05:06;5.68;;;2.00;;
69280;SDS011;56392;51.082;17.080;2023-05-14T11:10:31;5.80;;;1.73;;
69280;SDS011;56392;51.082;17.080;2023-05-14T11:15:54;5.97;;;2.00;;
69280;SDS011;56392;51.082;17.080;2023-05-14T11:21:19;5.00;;;1.90;;
69280;SDS011;56392;51.082;17.080;2023-05-14T11:26:42;5.72;;;1.80;;
69280;SDS011;56392;51.082;17.080;2023-05-14T11:32:06;6.80;;;1.87;;
69280;SDS011;56392;51.082;17.080;2023-05-14T11:37:30;6.25;;;1.92;;
69280;SDS011;56392;51.082;17.080;2023-05-14T11:42:53;5.95;;;2.40;;
69280;SDS011;56392;51.082;17.080;2023-05-14T11:48:17;6.13;;;2.10;;
69280;SDS011;56392;51.082;17.080;2023-05-14T11:53:41;5.53;;;2.00;;
69280;SDS011;56392;51.082;17.080;2023-05-14T11:59:04;5.88;;;2.08;;
69280;SDS011;56392;51.082;17.080;2023-05-14T12:04:28;7.00;;;2.30;;
69280;SDS011;56392;51.082;17.080;2023-05-14T12:09:53;8.03;;;2.83;;
69280;SDS011;56392;51.082;17.080;2023-05-14T12:15:16;6.10;;;2.10;;
69280;SDS011;56392;51.082;17.080;2023-05-14T12:20:39;7.10;;;2.60;;
69280;SDS011;56392;51.082;17.080;2023-05-14T12:26:11;7.27;;;2.40;;
69280;SDS011;56392;51.082;17.080;2023-05-14T12:31:34;6.20;;;2.60;;
69280;SDS011;56392;51.082;17.080;2023-05-14T12:36:58;9.02;;;3.00;;
69280;SDS011;56392;51.082;17.080;2023-05-14T12:42:22;9.03;;;2.90;;
69280;SDS011;56392;51.082;17.080;2023-05-14T12:47:45;6.32;;;2.75;;
69280;SDS011;56392;51.082;17.080;2023-05-14T12:53:08;6.82;;;2.90;;
69280;SDS011;56392;51.082;17.080;2023-05-14T12:58:33;8.17;;;3.00;;
69280;SDS011;56392;51.082;17.080;2023-05-14T13:03:56;8.20;;;2.80;;
69280;SDS011;56392;51.082;17.080;2023-05-14T13:09:19;7.65;;;2.90;;
69280;SDS011;56392;51.082;17.080;2023-05-14T13:14:44;9.50;;;3.20;;
69280;SDS011;56392;51.082;17.080;2023-05-14T13:20:07;7.13;;;3.20;;
69280;SDS011;56392;51.082;17.080;2023-05-14T13:25:31;9.35;;;3.92;;
69280;SDS011;56392;51.082;17.080;2023-05-14T13:36:36;8.60;;;3.60;;
69280;SDS011;56392;51.082;17.080;2023-05-14T13:41:59;7.90;;;3.55;;
69280;SDS011;56392;51.082;17.080;2023-05-14T13:47:24;8.05;;;4.07;;
69280;SDS011;56392;51.082;17.080;2023-05-14T13:52:47;7.50;;;3.63;;
69280;SDS011;56392;51.082;17.080;2023-05-14T13:58:10;8.77;;;4.00;;
69280;SDS011;56392;51.082;17.080;2023-05-14T14:03:35;9.25;;;3.85;;
69280;SDS011;56392;51.082;17.080;2023-05-14T14:08:58;8.75;;;4.25;;
69280;SDS011;56392;51.082;17.080;2023-05-14T14:14:21;7.83;;;4.27;;
69280;SDS011;56392;51.082;17.080;2023-05-14T14:19:45;8.38;;;4.40;;
69280;SDS011;56392;51.082;17.080;2023-05-14T14:25:08;11.30;;;4.97;;
69280;SDS011;56392;51.082;17.080;2023-05-14T14:30:32;10.23;;;4.90;;
69280;SDS011;56392;51.082;17.080;2023-05-14T14:35:57;9.38;;;4.60;;
69280;SDS011;56392;51.082;17.080;2023-05-14T14:41:20;9.18;;;3.97;;
69280;SDS011;56392;51.082;17.080;2023-05-14T14:46:43;7.90;;;3.80;;
69280;SDS011;56392;51.082;17.080;2023-05-14T14:52:08;8.53;;;3.60;;
69280;SDS011;56392;51.082;17.080;2023-05-14T14:57:31;7.45;;;3.90;;
69280;SDS011;56392;51.082;17.080;2023-05-14T15:02:54;9.43;;;4.25;;
69280;SDS011;56392;51.082;17.080;2023-05-14T15:08:18;10.07;;;4.57;;
69280;SDS011;56392;51.082;17.080;2023-05-14T15:13:42;9.77;;;4.32;;
69280;SDS011;56392;51.082;17.080;2023-05-14T15:19:05;9.75;;;4.75;;
69280;SDS011;56392;51.082;17.080;2023-05-14T15:24:29;8.90;;;3.87;;
69280;SDS011;56392;51.082;17.080;2023-05-14T15:29:52;8.35;;;4.13;;
69280;SDS011;56392;51.082;17.080;2023-05-14T15:35:15;11.48;;;4.30;;
69280;SDS011;56392;51.082;17.080;2023-05-14T15:40:40;8.00;;;4.20;;
69280;SDS011;56392;51.082;17.080;2023-05-14T15:46:03;11.17;;;4.87;;
69280;SDS011;56392;51.082;17.080;2023-05-14T15:51:26;9.45;;;4.70;;
69280;SDS011;56392;51.082;17.080;2023-05-14T15:56:51;10.43;;;4.88;;
69280;SDS011;56392;51.082;17.080;2023-05-14T16:02:14;9.07;;;4.43;;
69280;SDS011;56392;51.082;17.080;2023-05-14T16:07:37;12.77;;;4.85;;
69280;SDS011;56392;51.082;17.080;2023-05-14T16:13:02;11.65;;;5.30;;
69280;SDS011;56392;51.082;17.080;2023-05-14T16:18:25;11.60;;;5.03;;
69280;SDS011;56392;51.082;17.080;2023-05-14T16:23:48;11.18;;;5.03;;
69280;SDS011;56392;51.082;17.080;2023-05-14T16:29:12;10.27;;;5.25;;
69280;SDS011;56392;51.082;17.080;2023-05-14T16:34:35;10.53;;;5.50;;
69280;SDS011;56392;51.082;17.080;2023-05-14T16:39:58;12.63;;;5.83;;
69280;SDS011;56392;51.082;17.080;2023-05-14T16:45:22;11.00;;;5.93;;
69280;SDS011;56392;51.082;17.080;2023-05-14T16:50:45;15.63;;;6.68;;
69280;SDS011;56392;51.082;17.080;2023-05-14T16:56:08;18.40;;;6.70;;
69280;SDS011;56392;51.082;17.080;2023-05-14T17:01:33;17.85;;;5.80;;
69280;SDS011;56392;51.082;17.080;2023-05-14T17:06:56;16.17;;;5.65;;
69280;SDS011;56392;51.082;17.080;2023-05-14T17:12:19;15.90;;;5.80;;
69280;SDS011;56392;51.082;17.080;2023-05-14T17:17:43;16.80;;;5.72;;
69280;SDS011;56392;51.082;17.080;2023-05-14T17:23:06;18.48;;;5.72;;
69280;SDS011;56392;51.082;17.080;2023-05-14T17:28:29;18.70;;;5.80;;
69280;SDS011;56392;51.082;17.080;2023-05-14T17:33:53;18.67;;;6.27;;
69280;SDS011;56392;51.082;17.080;2023-05-14T17:39:16;14.85;;;6.63;;
69280;SDS011;56392;51.082;17.080;2023-05-14T17:44:39;16.30;;;6.80;;
69280;SDS011;56392;51.082;17.080;2023-05-14T17:50:04;14.17;;;6.17;;
69280;SDS011;56392;51.082;17.080;2023-05-14T17:55:28;11.35;;;6.15;;
69280;SDS011;56392;51.082;17.080;2023-05-14T18:00:51;16.13;;;6.50;;
69280;SDS011;56392;51.082;17.080;2023-05-14T18:06:15;14.07;;;6.43;;
69280;SDS011;56392;51.082;17.080;2023-05-14T18:11:38;18.92;;;6.40;;
69280;SDS011;56392;51.082;17.080;2023-05-14T18:17:01;14.73;;;6.90;;
69280;SDS011;56392;51.082;17.080;2023-05-14T18:22:26;15.97;;;7.30;;
69280;SDS011;56392;51.082;17.080;2023-05-14T18:27:49;15.63;;;7.60;;
69280;SDS011;56392;51.082;17.080;2023-05-14T18:33:12;15.93;;;7.88;;
69280;SDS011;56392;51.082;17.080;2023-05-14T18:38:36;20.25;;;8.07;;
69280;SDS011;56392;51.082;17.080;2023-05-14T18:44:01;18.90;;;8.23;;
69280;SDS011;56392;51.082;17.080;2023-05-14T18:49:24;23.45;;;8.65;;
69280;SDS011;56392;51.082;17.080;2023-05-14T18:54:49;18.48;;;9.32;;
69280;SDS011;56392;51.082;17.080;2023-05-14T19:00:12;28.83;;;10.33;;
69280;SDS011;56392;51.082;17.080;2023-05-14T19:05:36;24.92;;;11.77;;
69280;SDS011;56392;51.082;17.080;2023-05-14T19:11:00;26.35;;;13.52;;
69280;SDS011;56392;51.082;17.080;2023-05-14T19:16:23;22.40;;;11.93;;
69280;SDS011;56392;51.082;17.080;2023-05-14T19:21:46;21.70;;;11.50;;
69280;SDS011;56392;51.082;17.080;2023-05-14T19:27:11;19.17;;;10.77;;
69280;SDS011;56392;51.082;17.080;2023-05-14T19:32:36;19.52;;;10.30;;
69280;SDS011;56392;51.082;17.080;2023-05-14T19:37:59;15.00;;;7.10;;
69280;SDS011;56392;51.082;17.080;2023-05-14T19:43:24;11.38;;;6.70;;
69280;SDS011;56392;51.082;17.080;2023-05-14T19:48:48;14.68;;;6.60;;
69280;SDS011;56392;51.082;17.080;2023-05-14T19:54:11;11.67;;;7.40;;
69280;SDS011;56392;51.082;17.080;2023-05-14T19:59:36;11.75;;;6.10;;
69280;SDS011;56392;51.082;17.080;2023-05-14T20:05:00;12.65;;;6.47;;
69280;SDS011;56392;51.082;17.080;2023-05-14T20:10:23;12.97;;;6.43;;
69280;SDS011;56392;51.082;17.080;2023-05-14T20:15:47;14.67;;;6.60;;
69280;SDS011;56392;51.082;17.080;2023-05-14T20:21:10;13.63;;;6.30;;
69280;SDS011;56392;51.082;17.080;2023-05-14T20:26:33;12.10;;;7.05;;
69280;SDS011;56392;51.082;17.080;2023-05-14T20:31:58;13.73;;;6.43;;
69280;SDS011;56392;51.082;17.080;2023-05-14T20:37:23;10.68;;;6.45;;
69280;SDS011;56392;51.082;17.080;2023-05-14T20:42:46;14.48;;;6.60;;
69280;SDS011;56392;51.082;17.080;2023-05-14T20:48:12;18.07;;;6.47;;
69280;SDS011;56392;51.082;17.080;2023-05-14T20:53:36;12.43;;;6.55;;
69280;SDS011;56392;51.082;17.080;2023-05-14T20:59:00;12.35;;;6.88;;
69280;SDS011;56392;51.082;17.080;2023-05-14T21:04:24;13.50;;;7.17;;
69280;SDS011;56392;51.082;17.080;2023-05-14T21:09:47;11.30;;;6.90;;
69280;SDS011;56392;51.082;17.080;2023-05-14T21:15:12;12.93;;;7.47;;
69280;SDS011;56392;51.082;17.080;2023-05-14T21:20:37;13.85;;;7.13;;
69280;SDS011;56392;51.082;17.080;2023-05-14T21:26:00;13.53;;;7.30;;
69280;SDS011;56392;51.082;17.080;2023-05-14T21:31:23;12.88;;;7.40;;
69280;SDS011;56392;51.082;17.080;2023-05-14T21:36:47;14.38;;;8.30;;
69280;SDS011;56392;51.082;17.080;2023-05-14T21:42:10;12.80;;;7.77;;
69280;SDS011;56392;51.082;17.080;2023-05-14T21:47:33;12.52;;;7.78;;
69280;SDS011;56392;51.082;17.080;2023-05-14T21:52:58;15.70;;;8.25;;
69280;SDS011;56392;51.082;17.080;2023-05-14T21:58:21;14.73;;;8.70;;
69280;SDS011;56392;51.082;17.080;2023-05-14T22:03:44;13.87;;;8.33;;
69280;SDS011;56392;51.082;17.080;2023-05-14T22:09:09;14.98;;;7.53;;
69280;SDS011;56392;51.082;17.080;2023-05-14T22:14:32;15.57;;;9.13;;
69280;SDS011;56392;51.082;17.080;2023-05-14T22:19:55;13.27;;;8.50;;
69280;SDS011;56392;51.082;17.080;2023-05-14T22:25:20;16.77;;;8.98;;
69280;SDS011;56392;51.082;17.080;2023-05-14T22:30:43;18.85;;;9.13;;
69280;SDS011;56392;51.082;17.080;2023-05-14T22:36:06;16.57;;;9.20;;
69280;SDS011;56392;51.082;17.080;2023-05-14T22:41:31;14.35;;;8.98;;
69280;SDS011;56392;51.082;17.080;2023-05-14T22:46:54;15.35;;;8.88;;
69280;SDS011;56392;51.082;17.080;2023-05-14T22:52:17;16.13;;;9.77;;
69280;SDS011;56392;51.082;17.080;2023-05-14T22:57:41;13.53;;;9.57;;
69280;SDS011;56392;51.082;17.080;2023-05-14T23:03:05;14.88;;;9.18;;
69280;SDS011;56392;51.082;17.080;2023-05-14T23:08:28;15.02;;;9.55;;
69280;SDS011;56392;51.082;17.080;2023-05-14T23:13:52;16.77;;;9.63;;
69280;SDS011;56392;51.082;17.080;2023-05-14T23:19:15;15.43;;;9.35;;
69280;SDS011;56392;51.082;17.080;2023-05-14T23:24:38;15.63;;;10.40;;
69280;SDS011;56392;51.082;17.080;2023-05-14T23:30:03;17.00;;;10.53;;
69280;SDS011;56392;51.082;17.080;2023-05-14T23:35:26;15.23;;;10.32;;
69280;SDS011;56392;51.082;17.080;2023-05-14T23:40:49;16.10;;;10.13;;
69280;SDS011;56392;51.082;17.080;2023-05-14T23:46:14;16.47;;;10.33;;
69280;SDS011;56392;51.082;17.080;2023-05-14T23:51:37;25.97;;;10.97;;
69280;SDS011;56392;51.082;17.080;2023-05-14T23:57:01;20.33;;;12.52;;
